sensor_id;sensor_type;location;lat;lon;timestamp;temperature;humidity
17296;DHT22;8766;51.480;6.872;2023-05-16T00:01:09;15.40;58.70
17296;DHT22;8766;51.480;6.872;2023-05-16T00:03:37;15.50;58.70
17296;DHT22;8766;51.480;6.872;2023-05-16T00:06:05;15.70;58.80
17296;DHT22;8766;51.480;6.872;2023-05-16T00:08:32;15.60;58.70
17296;DHT22;8766;51.480;6.872;2023-05-16T00:10:59;15.50;58.70
17296;DHT22;8766;51.480;6.872;2023-05-16T00:13:26;15.50;58.70
17296;DHT22;8766;51.480;6.872;2023-05-16T00:15:53;15.50;58.80
17296;DHT22;8766;51.480;6.872;2023-05-16T00:18:21;15.50;58.80
17296;DHT22;8766;51.480;6.872;2023-05-16T00:20:47;15.40;58.80
17296;DHT22;8766;51.480;6.872;2023-05-16T00:23:16;15.40;58.90
17296;DHT22;8766;51.480;6.872;2023-05-16T00:25:43;15.30;58.90
17296;DHT22;8766;51.480;6.872;2023-05-16T00:28:11;15.30;59.00
17296;DHT22;8766;51.480;6.872;2023-05-16T00:30:38;15.30;59.00
17296;DHT22;8766;51.480;6.872;2023-05-16T00:33:05;15.30;59.00
17296;DHT22;8766;51.480;6.872;2023-05-16T00:35:31;15.20;59.60
17296;DHT22;8766;51.480;6.872;2023-05-16T00:37:58;15.20;59.10
17296;DHT22;8766;51.480;6.872;2023-05-16T00:40:27;15.10;59.10
17296;DHT22;8766;51.480;6.872;2023-05-16T00:42:53;15.20;59.20
17296;DHT22;8766;51.480;6.872;2023-05-16T00:45:21;15.20;59.20
17296;DHT22;8766;51.480;6.872;2023-05-16T00:47:48;15.10;59.30
17296;DHT22;8766;51.480;6.872;2023-05-16T00:50:15;15.10;59.30
17296;DHT22;8766;51.480;6.872;2023-05-16T00:52:42;15.00;59.40
17296;DHT22;8766;51.480;6.872;2023-05-16T00:55:09;15.00;59.40
17296;DHT22;8766;51.480;6.872;2023-05-16T00:57:37;15.10;59.40
17296;DHT22;8766;51.480;6.872;2023-05-16T01:00:06;15.00;59.40
17296;DHT22;8766;51.480;6.872;2023-05-16T01:02:33;14.90;59.50
17296;DHT22;8766;51.480;6.872;2023-05-16T01:05:01;14.90;59.60
17296;DHT22;8766;51.480;6.872;2023-05-16T01:07:29;14.80;59.60
17296;DHT22;8766;51.480;6.872;2023-05-16T01:09:56;14.80;59.70
17296;DHT22;8766;51.480;6.872;2023-05-16T01:12:30;14.70;59.80
17296;DHT22;8766;51.480;6.872;2023-05-16T01:15:04;14.70;59.80
17296;DHT22;8766;51.480;6.872;2023-05-16T01:17:42;14.60;59.90
17296;DHT22;8766;51.480;6.872;2023-05-16T01:20:15;14.60;60.00
17296;DHT22;8766;51.480;6.872;2023-05-16T01:22:58;14.50;60.00
17296;DHT22;8766;51.480;6.872;2023-05-16T01:25:38;14.50;60.20
17296;DHT22;8766;51.480;6.872;2023-05-16T01:28:09;14.50;60.30
17296;DHT22;8766;51.480;6.872;2023-05-16T01:30:39;14.40;60.30
17296;DHT22;8766;51.480;6.872;2023-05-16T01:33:06;14.40;60.30
17296;DHT22;8766;51.480;6.872;2023-05-16T01:35:33;14.40;60.90
17296;DHT22;8766;51.480;6.872;2023-05-16T01:38:10;14.40;60.30
17296;DHT22;8766;51.480;6.872;2023-05-16T01:40:52;14.30;60.30
17296;DHT22;8766;51.480;6.872;2023-05-16T01:43:28;14.50;60.40
17296;DHT22;8766;51.480;6.872;2023-05-16T01:46:01;14.40;60.20
17296;DHT22;8766;51.480;6.872;2023-05-16T01:48:34;14.30;60.10
17296;DHT22;8766;51.480;6.872;2023-05-16T01:51:01;14.30;60.10
17296;DHT22;8766;51.480;6.872;2023-05-16T01:53:37;14.30;60.10
17296;DHT22;8766;51.480;6.872;2023-05-16T01:56:09;14.40;61.00
17296;DHT22;8766;51.480;6.872;2023-05-16T01:58:38;14.40;60.10
17296;DHT22;8766;51.480;6.872;2023-05-16T02:01:06;14.40;60.10
17296;DHT22;8766;51.480;6.872;2023-05-16T02:03:34;14.30;60.00
17296;DHT22;8766;51.480;6.872;2023-05-16T02:06:00;14.30;60.10
17296;DHT22;8766;51.480;6.872;2023-05-16T02:08:28;14.20;60.20
17296;DHT22;8766;51.480;6.872;2023-05-16T02:10:55;14.20;60.20
17296;DHT22;8766;51.480;6.872;2023-05-16T02:13:22;14.20;60.10
17296;DHT22;8766;51.480;6.872;2023-05-16T02:15:50;14.40;60.20
17296;DHT22;8766;51.480;6.872;2023-05-16T02:18:17;14.20;60.10
17296;DHT22;8766;51.480;6.872;2023-05-16T02:20:44;14.20;60.20
17296;DHT22;8766;51.480;6.872;2023-05-16T02:23:12;14.20;60.20
17296;DHT22;8766;51.480;6.872;2023-05-16T02:25:39;14.20;60.20
17296;DHT22;8766;51.480;6.872;2023-05-16T02:28:06;14.20;60.20
17296;DHT22;8766;51.480;6.872;2023-05-16T02:30:33;14.30;60.40
17296;DHT22;8766;51.480;6.872;2023-05-16T02:33:02;14.00;60.30
17296;DHT22;8766;51.480;6.872;2023-05-16T02:35:29;14.00;60.40
17296;DHT22;8766;51.480;6.872;2023-05-16T02:37:56;14.20;60.60
17296;DHT22;8766;51.480;6.872;2023-05-16T02:40:23;14.00;60.50
17296;DHT22;8766;51.480;6.872;2023-05-16T02:42:50;13.90;60.50
17296;DHT22;8766;51.480;6.872;2023-05-16T02:45:17;13.90;60.50
17296;DHT22;8766;51.480;6.872;2023-05-16T02:47:44;13.90;60.60
17296;DHT22;8766;51.480;6.872;2023-05-16T02:50:13;13.90;60.60
17296;DHT22;8766;51.480;6.872;2023-05-16T02:52:40;13.80;60.70
17296;DHT22;8766;51.480;6.872;2023-05-16T02:55:07;13.80;60.80
17296;DHT22;8766;51.480;6.872;2023-05-16T02:57:36;13.80;60.80
17296;DHT22;8766;51.480;6.872;2023-05-16T03:00:03;13.80;60.80
17296;DHT22;8766;51.480;6.872;2023-05-16T03:02:31;13.70;60.70
17296;DHT22;8766;51.480;6.872;2023-05-16T03:04:58;13.80;60.70
17296;DHT22;8766;51.480;6.872;2023-05-16T03:07:26;13.80;60.70
17296;DHT22;8766;51.480;6.872;2023-05-16T03:09:53;13.70;60.70
17296;DHT22;8766;51.480;6.872;2023-05-16T03:12:20;13.70;60.70
17296;DHT22;8766;51.480;6.872;2023-05-16T03:14:46;13.70;60.70
17296;DHT22;8766;51.480;6.872;2023-05-16T03:17:13;13.70;60.80
17296;DHT22;8766;51.480;6.872;2023-05-16T03:19:40;13.60;60.80
17296;DHT22;8766;51.480;6.872;2023-05-16T03:22:07;13.50;60.90
17296;DHT22;8766;51.480;6.872;2023-05-16T03:24:35;13.60;61.00
17296;DHT22;8766;51.480;6.872;2023-05-16T03:27:03;13.50;61.00
17296;DHT22;8766;51.480;6.872;2023-05-16T03:29:30;13.50;61.10
17296;DHT22;8766;51.480;6.872;2023-05-16T03:32:27;13.40;61.20
17296;DHT22;8766;51.480;6.872;2023-05-16T03:37:33;13.20;61.70
17296;DHT22;8766;51.480;6.872;2023-05-16T03:40:02;13.20;61.70
17296;DHT22;8766;51.480;6.872;2023-05-16T03:42:30;13.10;61.70
17296;DHT22;8766;51.480;6.872;2023-05-16T03:44:57;13.10;61.70
17296;DHT22;8766;51.480;6.872;2023-05-16T03:47:23;13.10;61.80
17296;DHT22;8766;51.480;6.872;2023-05-16T03:49:51;13.00;61.80
17296;DHT22;8766;51.480;6.872;2023-05-16T03:52:18;13.00;62.00
17296;DHT22;8766;51.480;6.872;2023-05-16T03:54:44;12.90;62.10
17296;DHT22;8766;51.480;6.872;2023-05-16T03:57:13;12.90;62.20
17296;DHT22;8766;51.480;6.872;2023-05-16T03:59:39;12.90;62.30
17296;DHT22;8766;51.480;6.872;2023-05-16T04:02:07;12.80;62.30
17296;DHT22;8766;51.480;6.872;2023-05-16T04:04:34;12.80;62.30
17296;DHT22;8766;51.480;6.872;2023-05-16T04:07:01;12.80;62.40
17296;DHT22;8766;51.480;6.872;2023-05-16T04:09:28;12.80;62.30
17296;DHT22;8766;51.480;6.872;2023-05-16T04:11:55;12.80;62.30
17296;DHT22;8766;51.480;6.872;2023-05-16T04:14:23;12.80;62.20
17296;DHT22;8766;51.480;6.872;2023-05-16T04:16:50;12.80;62.10
17296;DHT22;8766;51.480;6.872;2023-05-16T04:19:17;12.90;62.10
17296;DHT22;8766;51.480;6.872;2023-05-16T04:21:44;12.90;62.00
17296;DHT22;8766;51.480;6.872;2023-05-16T04:24:11;12.90;61.90
17296;DHT22;8766;51.480;6.872;2023-05-16T04:26:38;12.90;61.90
17296;DHT22;8766;51.480;6.872;2023-05-16T04:29:05;12.90;61.80
17296;DHT22;8766;51.480;6.872;2023-05-16T04:31:34;13.00;61.70
17296;DHT22;8766;51.480;6.872;2023-05-16T04:34:01;13.00;61.50
17296;DHT22;8766;51.480;6.872;2023-05-16T04:36:28;13.10;61.30
17296;DHT22;8766;51.480;6.872;2023-05-16T04:38:56;13.20;61.20
17296;DHT22;8766;51.480;6.872;2023-05-16T04:41:23;13.20;61.00
17296;DHT22;8766;51.480;6.872;2023-05-16T04:43:49;13.30;60.90
17296;DHT22;8766;51.480;6.872;2023-05-16T04:46:17;13.30;60.80
17296;DHT22;8766;51.480;6.872;2023-05-16T04:48:46;13.30;60.70
17296;DHT22;8766;51.480;6.872;2023-05-16T04:51:13;13.40;60.60
17296;DHT22;8766;51.480;6.872;2023-05-16T04:53:40;13.50;60.50
17296;DHT22;8766;51.480;6.872;2023-05-16T04:56:07;13.50;60.30
17296;DHT22;8766;51.480;6.872;2023-05-16T04:58:34;13.60;60.10
17296;DHT22;8766;51.480;6.872;2023-05-16T05:01:01;13.70;60.00
17296;DHT22;8766;51.480;6.872;2023-05-16T05:03:28;13.70;59.90
17296;DHT22;8766;51.480;6.872;2023-05-16T05:05:56;13.80;59.80
17296;DHT22;8766;51.480;6.872;2023-05-16T05:08:23;13.90;59.70
17296;DHT22;8766;51.480;6.872;2023-05-16T05:10:50;14.00;59.60
17296;DHT22;8766;51.480;6.872;2023-05-16T05:13:16;14.50;59.20
17296;DHT22;8766;51.480;6.872;2023-05-16T05:15:43;15.60;57.30
17296;DHT22;8766;51.480;6.872;2023-05-16T05:18:10;17.10;54.60
17296;DHT22;8766;51.480;6.872;2023-05-16T05:20:37;18.50;51.90
17296;DHT22;8766;51.480;6.872;2023-05-16T05:23:05;19.90;49.60
17296;DHT22;8766;51.480;6.872;2023-05-16T05:25:33;21.20;47.70
17296;DHT22;8766;51.480;6.872;2023-05-16T05:28:01;22.20;46.10
17296;DHT22;8766;51.480;6.872;2023-05-16T05:30:28;23.00;44.90
17296;DHT22;8766;51.480;6.872;2023-05-16T05:32:55;23.70;44.00
17296;DHT22;8766;51.480;6.872;2023-05-16T05:35:22;24.30;43.40
17296;DHT22;8766;51.480;6.872;2023-05-16T05:37:49;24.70;42.80
17296;DHT22;8766;51.480;6.872;2023-05-16T05:40:17;25.20;42.40
17296;DHT22;8766;51.480;6.872;2023-05-16T05:42:44;25.60;42.00
17296;DHT22;8766;51.480;6.872;2023-05-16T05:45:11;26.00;41.70
17296;DHT22;8766;51.480;6.872;2023-05-16T05:47:38;26.40;41.40
17296;DHT22;8766;51.480;6.872;2023-05-16T05:50:06;26.70;41.20
17296;DHT22;8766;51.480;6.872;2023-05-16T05:52:36;26.90;41.00
17296;DHT22;8766;51.480;6.872;2023-05-16T05:55:03;27.40;40.70
17296;DHT22;8766;51.480;6.872;2023-05-16T05:57:32;27.70;40.40
17296;DHT22;8766;51.480;6.872;2023-05-16T05:59:58;28.10;40.20
17296;DHT22;8766;51.480;6.872;2023-05-16T06:02:26;28.40;39.90
17296;DHT22;8766;51.480;6.872;2023-05-16T06:04:53;28.70;39.70
17296;DHT22;8766;51.480;6.872;2023-05-16T06:07:20;28.90;39.50
17296;DHT22;8766;51.480;6.872;2023-05-16T06:09:47;29.20;39.30
17296;DHT22;8766;51.480;6.872;2023-05-16T06:12:14;29.50;39.10
17296;DHT22;8766;51.480;6.872;2023-05-16T06:14:42;29.90;38.80
17296;DHT22;8766;51.480;6.872;2023-05-16T06:17:09;30.20;38.50
17296;DHT22;8766;51.480;6.872;2023-05-16T06:19:36;30.50;38.40
17296;DHT22;8766;51.480;6.872;2023-05-16T06:22:03;30.60;38.30
17296;DHT22;8766;51.480;6.872;2023-05-16T06:24:30;30.80;38.30
17296;DHT22;8766;51.480;6.872;2023-05-16T06:26:57;31.00;38.10
17296;DHT22;8766;51.480;6.872;2023-05-16T06:29:24;31.20;38.00
17296;DHT22;8766;51.480;6.872;2023-05-16T06:31:52;31.40;37.90
17296;DHT22;8766;51.480;6.872;2023-05-16T06:34:19;31.30;38.10
17296;DHT22;8766;51.480;6.872;2023-05-16T06:36:52;31.40;38.10
17296;DHT22;8766;51.480;6.872;2023-05-16T06:39:19;31.30;38.30
17296;DHT22;8766;51.480;6.872;2023-05-16T06:41:45;31.30;38.40
17296;DHT22;8766;51.480;6.872;2023-05-16T06:44:12;29.90;39.90
17296;DHT22;8766;51.480;6.872;2023-05-16T06:46:39;29.00;41.30
17296;DHT22;8766;51.480;6.872;2023-05-16T06:49:07;28.70;41.70
17296;DHT22;8766;51.480;6.872;2023-05-16T06:51:34;28.90;41.50
17296;DHT22;8766;51.480;6.872;2023-05-16T06:54:01;29.90;40.20
17296;DHT22;8766;51.480;6.872;2023-05-16T06:56:28;30.70;39.10
17296;DHT22;8766;51.480;6.872;2023-05-16T06:58:56;31.50;38.30
17296;DHT22;8766;51.480;6.872;2023-05-16T07:01:22;32.20;37.50
17296;DHT22;8766;51.480;6.872;2023-05-16T07:03:50;32.70;36.90
17296;DHT22;8766;51.480;6.872;2023-05-16T07:06:18;33.20;36.60
17296;DHT22;8766;51.480;6.872;2023-05-16T07:08:45;33.40;36.40
17296;DHT22;8766;51.480;6.872;2023-05-16T07:11:12;33.70;36.20
17296;DHT22;8766;51.480;6.872;2023-05-16T07:13:39;33.90;35.90
17296;DHT22;8766;51.480;6.872;2023-05-16T07:16:06;34.30;35.70
17296;DHT22;8766;51.480;6.872;2023-05-16T07:18:33;34.70;35.50
17296;DHT22;8766;51.480;6.872;2023-05-16T07:21:00;34.90;35.20
17296;DHT22;8766;51.480;6.872;2023-05-16T07:23:28;35.20;35.00
17296;DHT22;8766;51.480;6.872;2023-05-16T07:25:55;35.50;34.90
17296;DHT22;8766;51.480;6.872;2023-05-16T07:28:22;35.50;34.90
17296;DHT22;8766;51.480;6.872;2023-05-16T07:30:49;35.50;35.00
17296;DHT22;8766;51.480;6.872;2023-05-16T07:33:16;34.80;35.90
17296;DHT22;8766;51.480;6.872;2023-05-16T07:35:42;34.60;36.20
17296;DHT22;8766;51.480;6.872;2023-05-16T07:38:09;35.00;35.90
17296;DHT22;8766;51.480;6.872;2023-05-16T07:40:38;35.20;35.70
17296;DHT22;8766;51.480;6.872;2023-05-16T07:43:04;34.90;36.00
17296;DHT22;8766;51.480;6.872;2023-05-16T07:45:31;35.20;35.80
17296;DHT22;8766;51.480;6.872;2023-05-16T07:47:58;35.20;35.70
17296;DHT22;8766;51.480;6.872;2023-05-16T07:50:25;35.30;35.70
17296;DHT22;8766;51.480;6.872;2023-05-16T07:52:52;35.40;35.50
17296;DHT22;8766;51.480;6.872;2023-05-16T07:55:19;35.20;35.80
17296;DHT22;8766;51.480;6.872;2023-05-16T07:57:48;34.10;37.00
17296;DHT22;8766;51.480;6.872;2023-05-16T08:00:16;33.70;37.50
17296;DHT22;8766;51.480;6.872;2023-05-16T08:02:43;32.60;38.80
17296;DHT22;8766;51.480;6.872;2023-05-16T08:05:10;32.50;38.80
17296;DHT22;8766;51.480;6.872;2023-05-16T08:07:36;32.60;38.70
17296;DHT22;8766;51.480;6.872;2023-05-16T08:10:04;32.80;38.40
17296;DHT22;8766;51.480;6.872;2023-05-16T08:12:31;32.70;38.40
17296;DHT22;8766;51.480;6.872;2023-05-16T08:15:00;31.50;39.50
17296;DHT22;8766;51.480;6.872;2023-05-16T08:17:26;30.10;41.30
17296;DHT22;8766;51.480;6.872;2023-05-16T08:19:53;30.30;41.10
17296;DHT22;8766;51.480;6.872;2023-05-16T08:22:21;31.20;39.80
17296;DHT22;8766;51.480;6.872;2023-05-16T08:24:47;31.10;39.60
17296;DHT22;8766;51.480;6.872;2023-05-16T08:27:14;30.40;40.30
17296;DHT22;8766;51.480;6.872;2023-05-16T08:29:41;30.00;40.70
17296;DHT22;8766;51.480;6.872;2023-05-16T08:32:10;29.10;41.60
17296;DHT22;8766;51.480;6.872;2023-05-16T08:34:37;27.70;43.30
17296;DHT22;8766;51.480;6.872;2023-05-16T08:37:04;26.50;45.00
17296;DHT22;8766;51.480;6.872;2023-05-16T08:39:31;26.50;44.70
17296;DHT22;8766;51.480;6.872;2023-05-16T08:41:57;27.70;42.60
17296;DHT22;8766;51.480;6.872;2023-05-16T08:44:27;29.00;40.40
17296;DHT22;8766;51.480;6.872;2023-05-16T08:46:54;29.60;39.20
17296;DHT22;8766;51.480;6.872;2023-05-16T08:49:26;30.40;37.80
17296;DHT22;8766;51.480;6.872;2023-05-16T08:51:56;31.00;36.70
17296;DHT22;8766;51.480;6.872;2023-05-16T08:54:24;31.40;36.00
17296;DHT22;8766;51.480;6.872;2023-05-16T08:56:52;31.40;35.60
17296;DHT22;8766;51.480;6.872;2023-05-16T08:59:20;31.20;35.60
17296;DHT22;8766;51.480;6.872;2023-05-16T09:01:47;30.50;36.40
17296;DHT22;8766;51.480;6.872;2023-05-16T09:04:15;29.70;37.40
17296;DHT22;8766;51.480;6.872;2023-05-16T09:06:43;28.80;38.80
17296;DHT22;8766;51.480;6.872;2023-05-16T09:09:10;28.00;39.90
17296;DHT22;8766;51.480;6.872;2023-05-16T09:11:37;27.30;40.80
17296;DHT22;8766;51.480;6.872;2023-05-16T09:14:04;26.60;41.80
17296;DHT22;8766;51.480;6.872;2023-05-16T09:16:31;25.90;42.70
17296;DHT22;8766;51.480;6.872;2023-05-16T09:18:59;25.10;43.70
17296;DHT22;8766;51.480;6.872;2023-05-16T09:21:27;24.50;44.90
17296;DHT22;8766;51.480;6.872;2023-05-16T09:24:01;23.90;45.50
17296;DHT22;8766;51.480;6.872;2023-05-16T09:26:29;23.50;46.10
17296;DHT22;8766;51.480;6.872;2023-05-16T09:28:57;23.10;46.70
17296;DHT22;8766;51.480;6.872;2023-05-16T09:31:25;22.80;47.10
17296;DHT22;8766;51.480;6.872;2023-05-16T09:33:55;22.50;47.50
17296;DHT22;8766;51.480;6.872;2023-05-16T09:36:22;22.30;47.70
17296;DHT22;8766;51.480;6.872;2023-05-16T09:38:50;22.30;47.60
17296;DHT22;8766;51.480;6.872;2023-05-16T09:41:20;22.50;47.20
17296;DHT22;8766;51.480;6.872;2023-05-16T09:43:47;22.60;46.90
17296;DHT22;8766;51.480;6.872;2023-05-16T09:46:15;22.60;46.80
17296;DHT22;8766;51.480;6.872;2023-05-16T09:48:44;22.30;47.00
17296;DHT22;8766;51.480;6.872;2023-05-16T09:51:12;22.00;47.30
17296;DHT22;8766;51.480;6.872;2023-05-16T09:53:40;21.70;47.80
17296;DHT22;8766;51.480;6.872;2023-05-16T09:56:09;21.50;48.20
17296;DHT22;8766;51.480;6.872;2023-05-16T09:58:40;21.30;48.40
17296;DHT22;8766;51.480;6.872;2023-05-16T10:01:08;21.10;48.60
17296;DHT22;8766;51.480;6.872;2023-05-16T10:03:37;21.10;48.60
17296;DHT22;8766;51.480;6.872;2023-05-16T10:06:05;21.30;48.20
17296;DHT22;8766;51.480;6.872;2023-05-16T10:08:34;21.60;47.40
17296;DHT22;8766;51.480;6.872;2023-05-16T10:11:02;21.90;46.90
17296;DHT22;8766;51.480;6.872;2023-05-16T10:13:30;22.00;46.50
17296;DHT22;8766;51.480;6.872;2023-05-16T10:16:01;22.00;46.50
17296;DHT22;8766;51.480;6.872;2023-05-16T10:18:32;21.90;46.60
17296;DHT22;8766;51.480;6.872;2023-05-16T10:21:04;21.60;46.80
17296;DHT22;8766;51.480;6.872;2023-05-16T10:23:32;21.50;47.20
17296;DHT22;8766;51.480;6.872;2023-05-16T10:26:03;21.30;47.50
17296;DHT22;8766;51.480;6.872;2023-05-16T10:28:41;21.30;47.50
17296;DHT22;8766;51.480;6.872;2023-05-16T10:31:10;21.50;47.10
17296;DHT22;8766;51.480;6.872;2023-05-16T10:33:38;21.80;46.60
17296;DHT22;8766;51.480;6.872;2023-05-16T10:36:06;21.80;46.30
17296;DHT22;8766;51.480;6.872;2023-05-16T10:38:34;21.70;46.50
17296;DHT22;8766;51.480;6.872;2023-05-16T10:41:01;21.40;46.80
17296;DHT22;8766;51.480;6.872;2023-05-16T10:43:29;21.10;47.30
17296;DHT22;8766;51.480;6.872;2023-05-16T10:46:02;20.80;47.80
17296;DHT22;8766;51.480;6.872;2023-05-16T10:48:33;20.60;48.00
17296;DHT22;8766;51.480;6.872;2023-05-16T10:51:01;20.60;48.10
17296;DHT22;8766;51.480;6.872;2023-05-16T10:53:30;20.50;48.10
17296;DHT22;8766;51.480;6.872;2023-05-16T10:56:06;20.50;48.10
17296;DHT22;8766;51.480;6.872;2023-05-16T10:58:45;20.60;47.90
17296;DHT22;8766;51.480;6.872;2023-05-16T11:01:18;20.70;47.80
17296;DHT22;8766;51.480;6.872;2023-05-16T11:04:06;20.70;47.60
17296;DHT22;8766;51.480;6.872;2023-05-16T11:06:34;20.80;47.60
17296;DHT22;8766;51.480;6.872;2023-05-16T11:09:06;20.80;47.40
17296;DHT22;8766;51.480;6.872;2023-05-16T11:11:42;20.80;47.30
17296;DHT22;8766;51.480;6.872;2023-05-16T11:14:19;21.00;47.20
17296;DHT22;8766;51.480;6.872;2023-05-16T11:16:48;21.10;46.90
17296;DHT22;8766;51.480;6.872;2023-05-16T11:19:33;21.10;47.30
17296;DHT22;8766;51.480;6.872;2023-05-16T11:22:22;21.20;46.60
17296;DHT22;8766;51.480;6.872;2023-05-16T11:24:54;21.20;46.40
17296;DHT22;8766;51.480;6.872;2023-05-16T11:27:24;21.20;46.50
17296;DHT22;8766;51.480;6.872;2023-05-16T11:29:51;20.90;46.70
17296;DHT22;8766;51.480;6.872;2023-05-16T11:32:19;20.60;47.20
17296;DHT22;8766;51.480;6.872;2023-05-16T11:34:49;20.20;47.70
17296;DHT22;8766;51.480;6.872;2023-05-16T11:37:17;20.00;48.30
17296;DHT22;8766;51.480;6.872;2023-05-16T11:39:44;19.70;48.60
17296;DHT22;8766;51.480;6.872;2023-05-16T11:42:11;19.60;48.90
17296;DHT22;8766;51.480;6.872;2023-05-16T11:44:39;19.40;49.00
17296;DHT22;8766;51.480;6.872;2023-05-16T11:47:07;19.40;49.10
17296;DHT22;8766;51.480;6.872;2023-05-16T11:49:34;19.40;49.00
17296;DHT22;8766;51.480;6.872;2023-05-16T11:52:02;19.40;48.90
17296;DHT22;8766;51.480;6.872;2023-05-16T11:54:30;19.50;48.80
17296;DHT22;8766;51.480;6.872;2023-05-16T11:56:59;19.70;48.50
17296;DHT22;8766;51.480;6.872;2023-05-16T11:59:26;19.80;48.30
17296;DHT22;8766;51.480;6.872;2023-05-16T12:01:53;19.80;48.20
17296;DHT22;8766;51.480;6.872;2023-05-16T12:04:20;19.80;48.10
17296;DHT22;8766;51.480;6.872;2023-05-16T12:06:57;19.80;48.00
17296;DHT22;8766;51.480;6.872;2023-05-16T12:09:27;19.90;47.90
17296;DHT22;8766;51.480;6.872;2023-05-16T12:11:54;20.00;47.70
17296;DHT22;8766;51.480;6.872;2023-05-16T12:14:21;20.10;47.50
17296;DHT22;8766;51.480;6.872;2023-05-16T12:16:51;20.20;47.30
17296;DHT22;8766;51.480;6.872;2023-05-16T12:19:18;20.30;47.20
17296;DHT22;8766;51.480;6.872;2023-05-16T12:21:45;20.40;46.80
17296;DHT22;8766;51.480;6.872;2023-05-16T12:24:12;20.60;46.60
17296;DHT22;8766;51.480;6.872;2023-05-16T12:26:41;20.70;46.50
17296;DHT22;8766;51.480;6.872;2023-05-16T12:29:09;20.70;46.50
17296;DHT22;8766;51.480;6.872;2023-05-16T12:31:37;20.80;46.20
17296;DHT22;8766;51.480;6.872;2023-05-16T12:34:14;21.00;45.90
17296;DHT22;8766;51.480;6.872;2023-05-16T12:36:41;21.00;45.80
17296;DHT22;8766;51.480;6.872;2023-05-16T12:39:11;21.10;45.60
17296;DHT22;8766;51.480;6.872;2023-05-16T12:41:41;21.20;45.40
17296;DHT22;8766;51.480;6.872;2023-05-16T12:44:12;21.40;45.20
17296;DHT22;8766;51.480;6.872;2023-05-16T12:46:42;21.60;45.00
17296;DHT22;8766;51.480;6.872;2023-05-16T12:49:10;21.60;44.80
17296;DHT22;8766;51.480;6.872;2023-05-16T12:51:37;21.70;44.80
17296;DHT22;8766;51.480;6.872;2023-05-16T12:54:08;21.70;44.80
17296;DHT22;8766;51.480;6.872;2023-05-16T12:56:36;21.50;44.90
17296;DHT22;8766;51.480;6.872;2023-05-16T12:59:04;21.30;45.20
17296;DHT22;8766;51.480;6.872;2023-05-16T13:01:31;21.30;45.30
17296;DHT22;8766;51.480;6.872;2023-05-16T13:03:59;21.30;45.20
17296;DHT22;8766;51.480;6.872;2023-05-16T13:06:26;21.30;45.20
17296;DHT22;8766;51.480;6.872;2023-05-16T13:08:53;21.20;45.30
17296;DHT22;8766;51.480;6.872;2023-05-16T13:11:20;21.10;45.50
17296;DHT22;8766;51.480;6.872;2023-05-16T13:13:47;21.00;45.60
17296;DHT22;8766;51.480;6.872;2023-05-16T13:16:15;21.10;45.70
17296;DHT22;8766;51.480;6.872;2023-05-16T13:18:42;21.00;45.60
17296;DHT22;8766;51.480;6.872;2023-05-16T13:21:09;20.90;45.70
17296;DHT22;8766;51.480;6.872;2023-05-16T13:23:36;20.80;45.80
17296;DHT22;8766;51.480;6.872;2023-05-16T13:26:03;20.70;45.90
17296;DHT22;8766;51.480;6.872;2023-05-16T13:28:30;20.70;46.00
17296;DHT22;8766;51.480;6.872;2023-05-16T13:30:57;20.70;46.00
17296;DHT22;8766;51.480;6.872;2023-05-16T13:33:25;20.60;46.00
17296;DHT22;8766;51.480;6.872;2023-05-16T13:35:52;20.60;46.00
17296;DHT22;8766;51.480;6.872;2023-05-16T13:38:19;20.50;46.00
17296;DHT22;8766;51.480;6.872;2023-05-16T13:40:46;20.40;46.20
17296;DHT22;8766;51.480;6.872;2023-05-16T13:43:13;20.30;46.40
17296;DHT22;8766;51.480;6.872;2023-05-16T13:45:40;20.30;46.50
17296;DHT22;8766;51.480;6.872;2023-05-16T13:48:08;20.30;46.30
17296;DHT22;8766;51.480;6.872;2023-05-16T13:50:37;20.40;46.10
17296;DHT22;8766;51.480;6.872;2023-05-16T13:53:05;20.60;45.70
17296;DHT22;8766;51.480;6.872;2023-05-16T13:55:32;20.80;45.30
17296;DHT22;8766;51.480;6.872;2023-05-16T13:57:59;20.90;45.20
17296;DHT22;8766;51.480;6.872;2023-05-16T14:00:27;20.90;45.10
17296;DHT22;8766;51.480;6.872;2023-05-16T14:02:54;20.70;45.30
17296;DHT22;8766;51.480;6.872;2023-05-16T14:05:21;20.60;45.50
17296;DHT22;8766;51.480;6.872;2023-05-16T14:07:49;20.40;45.80
17296;DHT22;8766;51.480;6.872;2023-05-16T14:10:16;20.30;46.00
17296;DHT22;8766;51.480;6.872;2023-05-16T14:12:43;20.20;46.10
17296;DHT22;8766;51.480;6.872;2023-05-16T14:15:10;20.10;46.30
17296;DHT22;8766;51.480;6.872;2023-05-16T14:17:37;20.00;46.30
17296;DHT22;8766;51.480;6.872;2023-05-16T14:20:05;20.00;46.40
17296;DHT22;8766;51.480;6.872;2023-05-16T14:22:34;20.10;46.20
17296;DHT22;8766;51.480;6.872;2023-05-16T14:25:03;20.20;46.00
17296;DHT22;8766;51.480;6.872;2023-05-16T14:27:30;20.30;45.80
17296;DHT22;8766;51.480;6.872;2023-05-16T14:29:57;20.30;45.70
17296;DHT22;8766;51.480;6.872;2023-05-16T14:32:24;20.30;45.70
17296;DHT22;8766;51.480;6.872;2023-05-16T14:34:51;20.30;45.80
17296;DHT22;8766;51.480;6.872;2023-05-16T14:37:18;20.10;45.90
17296;DHT22;8766;51.480;6.872;2023-05-16T14:39:46;20.00;46.10
17296;DHT22;8766;51.480;6.872;2023-05-16T14:42:16;19.90;46.30
17296;DHT22;8766;51.480;6.872;2023-05-16T14:44:43;19.60;46.60
17296;DHT22;8766;51.480;6.872;2023-05-16T14:47:10;19.40;47.00
17296;DHT22;8766;51.480;6.872;2023-05-16T14:49:37;19.30;47.20
17296;DHT22;8766;51.480;6.872;2023-05-16T14:52:05;19.20;47.30
17296;DHT22;8766;51.480;6.872;2023-05-16T14:54:32;19.20;47.30
17296;DHT22;8766;51.480;6.872;2023-05-16T14:56:58;19.20;47.30
17296;DHT22;8766;51.480;6.872;2023-05-16T14:59:27;19.10;47.20
17296;DHT22;8766;51.480;6.872;2023-05-16T15:01:54;19.10;47.30
17296;DHT22;8766;51.480;6.872;2023-05-16T15:04:21;19.10;47.30
17296;DHT22;8766;51.480;6.872;2023-05-16T15:06:48;19.10;47.30
17296;DHT22;8766;51.480;6.872;2023-05-16T15:09:15;19.00;47.20
17296;DHT22;8766;51.480;6.872;2023-05-16T15:11:43;19.10;47.10
17296;DHT22;8766;51.480;6.872;2023-05-16T15:14:10;19.10;47.00
17296;DHT22;8766;51.480;6.872;2023-05-16T15:16:39;19.20;46.90
17296;DHT22;8766;51.480;6.872;2023-05-16T15:19:06;19.20;46.90
17296;DHT22;8766;51.480;6.872;2023-05-16T15:21:33;19.10;46.90
17296;DHT22;8766;51.480;6.872;2023-05-16T15:24:00;19.00;47.00
17296;DHT22;8766;51.480;6.872;2023-05-16T15:26:26;18.90;47.10
17296;DHT22;8766;51.480;6.872;2023-05-16T15:28:53;18.90;47.20
17296;DHT22;8766;51.480;6.872;2023-05-16T15:31:20;18.90;47.20
17296;DHT22;8766;51.480;6.872;2023-05-16T15:33:48;18.90;47.20
17296;DHT22;8766;51.480;6.872;2023-05-16T15:36:15;18.90;47.20
17296;DHT22;8766;51.480;6.872;2023-05-16T15:38:42;18.90;47.20
17296;DHT22;8766;51.480;6.872;2023-05-16T15:41:10;18.90;47.10
17296;DHT22;8766;51.480;6.872;2023-05-16T15:43:38;18.90;47.00
17296;DHT22;8766;51.480;6.872;2023-05-16T15:46:05;18.90;47.00
17296;DHT22;8766;51.480;6.872;2023-05-16T15:48:33;18.90;47.00
17296;DHT22;8766;51.480;6.872;2023-05-16T15:51:02;18.90;46.90
17296;DHT22;8766;51.480;6.872;2023-05-16T15:53:29;19.00;46.80